Time;durP1;ratioP1;P1;durP2;ratioP2;P2;SDS_P1;SDS_P2;PMS_P1;PMS_P2;Temp;Humidity;BMP_temperature;BMP_pressure;BME280_temperature;BME280_humidity;BME280_pressure;Samples;Min_cycle;Max_cycle;Signal;HPM_P1;HPM_P2
2022/08/25 00:02:00;;;;;;;1.75;1.60;;;23.80;68.50;;;;;;5014586;28;20682;-71
2022/08/25 00:04:28;;;;;;;1.65;1.55;;;23.80;68.50;;;;;;5030570;28;20179;-71
2022/08/25 00:06:54;;;;;;;1.42;1.33;;;23.80;68.50;;;;;;5031216;28;20175;-70
2022/08/25 00:09:26;;;;;;;2.00;1.90;;;23.80;68.50;;;;;;5030887;28;20203;-71
2022/08/25 00:11:53;;;;;;;1.60;1.50;;;23.80;68.50;;;;;;5032172;28;20184;-71
2022/08/25 00:14:32;;;;;;;1.90;1.80;;;23.80;68.40;;;;;;5031527;28;20267;-70
2022/08/25 00:16:58;;;;;;;1.83;1.73;;;23.80;68.50;;;;;;5014193;28;20226;-71
2022/08/25 00:19:30;;;;;;;1.63;1.52;;;23.80;68.50;;;;;;5014401;28;20207;-71
2022/08/25 00:21:57;;;;;;;1.63;1.52;;;23.80;68.50;;;;;;5030873;28;20690;-71
2022/08/25 00:24:23;;;;;;;1.50;1.40;;;23.80;68.50;;;;;;5014226;28;20187;-70
2022/08/25 00:26:53;;;;;;;1.45;1.40;;;23.80;68.50;;;;;;5030732;28;20230;-71
2022/08/25 00:29:21;;;;;;;1.60;1.50;;;23.80;68.50;;;;;;5030908;28;20210;-70
2022/08/25 00:31:47;;;;;;;1.50;1.40;;;23.80;68.50;;;;;;5014705;28;20183;-70
2022/08/25 00:34:20;;;;;;;1.80;1.70;;;23.80;68.50;;;;;;5031586;28;20186;-71
2022/08/25 00:36:46;;;;;;;1.80;1.70;;;23.80;69.20;;;;;;5030808;28;20183;-71
2022/08/25 00:39:12;;;;;;;1.60;1.50;;;23.80;68.50;;;;;;5030755;28;20195;-71
2022/08/25 00:41:41;;;;;;;1.70;1.60;;;23.80;68.50;;;;;;5033018;28;20257;-70
2022/08/25 00:44:11;;;;;;;2.00;1.90;;;23.80;68.50;;;;;;5033733;28;20183;-71
2022/08/25 00:46:47;;;;;;;1.70;1.60;;;23.80;68.50;;;;;;5051106;28;20188;-71
2022/08/25 00:49:23;;;;;;;1.98;1.88;;;23.80;68.40;;;;;;5034368;28;20277;-71
2022/08/25 00:51:52;;;;;;;2.05;1.85;;;23.80;68.50;;;;;;5034524;28;20175;-71
2022/08/25 00:54:26;;;;;;;1.80;1.70;;;23.80;68.40;;;;;;5033630;28;20183;-70
2022/08/25 00:56:55;;;;;;;1.98;1.88;;;23.70;68.40;;;;;;5034289;28;20174;-71
2022/08/25 00:59:23;;;;;;;1.58;1.48;;;23.80;68.50;;;;;;5035149;28;20269;-71
2022/08/25 01:01:51;;;;;;;1.98;1.88;;;23.80;68.50;;;;;;5035427;28;20222;-71
2022/08/25 01:04:17;;;;;;;1.60;1.50;;;23.80;68.50;;;;;;5017008;28;20688;-71
2022/08/25 01:06:46;;;;;;;2.38;1.50;;;23.80;68.40;;;;;;5051037;28;20183;-71
2022/08/25 01:09:13;;;;;;;1.77;1.67;;;23.80;68.50;;;;;;5033996;28;20210;-71
2022/08/25 01:11:43;;;;;;;1.60;1.50;;;23.80;68.40;;;;;;5034118;28;20175;-71
2022/08/25 01:14:11;;;;;;;1.42;1.33;;;23.80;68.40;;;;;;5049752;28;20190;-70
2022/08/25 01:16:38;;;;;;;1.60;1.50;;;23.80;68.40;;;;;;5033716;28;20196;-71
2022/08/25 01:19:11;;;;;;;1.63;1.52;;;23.80;68.40;;;;;;5033746;28;20211;-71
2022/08/25 01:21:52;;;;;;;1.63;1.52;;;23.80;68.50;;;;;;5017210;28;20207;-71
2022/08/25 01:24:43;;;;;;;1.67;1.58;;;23.80;68.40;;;;;;5034710;28;20171;-71
2022/08/25 01:27:10;;;;;;;2.00;1.90;;;23.70;68.30;;;;;;5017567;28;20172;-71
2022/08/25 01:29:37;;;;;;;1.77;1.67;;;23.80;68.40;;;;;;5033661;28;20234;-71
2022/08/25 01:32:08;;;;;;;1.80;1.70;;;23.80;68.40;;;;;;5033993;28;20187;-71
2022/08/25 01:34:39;;;;;;;1.70;1.60;;;23.70;68.30;;;;;;5033296;28;20184;-71
2022/08/25 01:37:06;;;;;;;1.83;1.50;;;23.80;68.50;;;;;;5017103;28;20184;-70
2022/08/25 01:39:35;;;;;;;1.20;1.20;;;23.80;68.40;;;;;;5034580;28;20195;-70
2022/08/25 01:42:16;;;;;;;1.52;1.42;;;23.80;68.40;;;;;;5033642;28;20215;-71
2022/08/25 01:44:46;;;;;;;1.83;1.73;;;23.70;68.30;;;;;;5016251;28;20281;-71
2022/08/25 01:47:12;;;;;;;1.60;1.50;;;23.80;68.40;;;;;;5033566;28;20183;-71
2022/08/25 01:49:38;;;;;;;2.00;1.90;;;23.70;68.30;;;;;;5033640;28;20275;-71
2022/08/25 01:52:36;;;;;;;1.67;1.58;;;23.70;68.30;;;;;;5033672;28;20267;-71
2022/08/25 01:55:03;;;;;;;1.85;1.75;;;23.70;68.40;;;;;;5049877;28;20202;-71
2022/08/25 01:57:30;;;;;;;1.80;1.70;;;23.70;68.30;;;;;;5035300;28;20245;-71
2022/08/25 01:59:57;;;;;;;1.65;1.55;;;23.80;68.40;;;;;;5034278;28;20203;-71
2022/08/25 02:02:23;;;;;;;1.90;1.80;;;23.70;68.30;;;;;;5052732;28;20278;-70
2022/08/25 02:04:49;;;;;;;2.88;1.73;;;23.70;68.40;;;;;;5051862;28;20174;-70
2022/08/25 02:07:15;;;;;;;1.90;1.80;;;23.70;68.30;;;;;;5039003;28;20196;-70
2022/08/25 02:09:43;;;;;;;1.83;1.73;;;23.70;68.40;;;;;;5016641;28;20199;-71
2022/08/25 02:12:08;;;;;;;1.90;1.80;;;23.70;68.30;;;;;;5033190;28;20164;-71
2022/08/25 02:14:36;;;;;;;1.83;1.73;;;23.70;68.30;;;;;;5031035;28;20681;-71
2022/08/25 02:17:03;;;;;;;1.70;1.60;;;23.70;68.30;;;;;;5032207;28;20632;-70
2022/08/25 02:19:30;;;;;;;1.40;1.30;;;23.70;68.30;;;;;;5032498;28;20580;-71
2022/08/25 02:21:57;;;;;;;1.77;1.67;;;23.70;68.30;;;;;;5049084;28;20207;-71
2022/08/25 02:24:23;;;;;;;1.70;1.60;;;23.70;68.80;;;;;;5015956;28;20175;-70
2022/08/25 02:26:49;;;;;;;1.70;1.60;;;23.70;68.40;;;;;;5016049;28;20560;-70
2022/08/25 02:29:15;;;;;;;2.10;2.00;;;23.70;68.40;;;;;;5032158;28;20230;-70
2022/08/25 02:31:42;;;;;;;1.80;1.70;;;23.70;68.30;;;;;;5032652;28;20263;-71
2022/08/25 02:34:09;;;;;;;1.90;1.80;;;23.70;68.40;;;;;;5033159;28;20188;-70
2022/08/25 02:36:37;;;;;;;1.90;1.80;;;23.70;68.40;;;;;;5015907;28;20184;-70
2022/08/25 02:39:07;;;;;;;1.80;1.70;;;23.70;68.40;;;;;;5032285;28;20207;-70
2022/08/25 02:41:33;;;;;;;2.00;1.90;;;23.70;68.40;;;;;;5032278;28;20225;-70
2022/08/25 02:44:01;;;;;;;1.90;1.80;;;23.70;68.40;;;;;;5031795;28;20168;-70
2022/08/25 02:46:28;;;;;;;1.95;1.85;;;23.70;68.40;;;;;;5031976;28;20274;-70
2022/08/25 02:48:54;;;;;;;2.15;1.95;;;23.70;68.40;;;;;;5032467;28;20203;-71
2022/08/25 02:51:23;;;;;;;2.00;1.90;;;23.70;68.40;;;;;;5032349;28;20221;-71
2022/08/25 02:53:49;;;;;;;2.10;2.00;;;23.70;68.40;;;;;;5031856;28;20195;-71
2022/08/25 02:56:17;;;;;;;1.90;1.80;;;23.70;68.40;;;;;;5032734;28;20188;-70
2022/08/25 02:58:44;;;;;;;1.85;1.75;;;23.70;68.40;;;;;;5015375;28;20207;-70
2022/08/25 03:01:10;;;;;;;1.67;1.58;;;23.70;68.40;;;;;;5048368;28;20218;-71
2022/08/25 03:03:43;;;;;;;1.98;1.88;;;23.70;68.40;;;;;;5031694;28;20198;-70
2022/08/25 03:06:12;;;;;;;1.70;1.60;;;23.70;68.30;;;;;;5031730;28;20175;-70
2022/08/25 03:08:40;;;;;;;2.20;2.10;;;23.60;68.20;;;;;;5031680;28;20230;-70
2022/08/25 03:11:06;;;;;;;1.90;1.80;;;23.70;68.40;;;;;;5031878;28;20183;-70
2022/08/25 03:13:32;;;;;;;1.73;1.63;;;23.70;68.40;;;;;;5010472;28;20202;-70
2022/08/25 03:16:00;;;;;;;2.20;2.00;;;23.70;68.40;;;;;;5031397;28;20183;-70
2022/08/25 03:18:26;;;;;;;2.33;2.13;;;23.60;68.30;;;;;;5031370;28;20217;-70
2022/08/25 03:20:53;;;;;;;1.67;1.58;;;23.70;68.40;;;;;;5031738;28;20340;-71
2022/08/25 03:23:19;;;;;;;2.05;1.95;;;23.60;68.30;;;;;;5032217;28;20265;-70
2022/08/25 03:28:32;;;;;;;2.60;2.40;;;23.70;68.40;;;;;;5031240;28;20204;-70
2022/08/25 03:31:01;;;;;;;2.83;2.10;;;23.60;68.30;;;;;;5032497;28;20190;-71
2022/08/25 03:33:29;;;;;;;2.38;2.17;;;23.70;68.40;;;;;;5031232;28;20195;-70
2022/08/25 03:35:56;;;;;;;1.92;1.83;;;23.60;68.20;;;;;;5031260;28;20325;-71
2022/08/25 03:38:24;;;;;;;2.00;1.90;;;23.60;68.30;;;;;;5015155;28;20211;-71
2022/08/25 03:40:50;;;;;;;1.85;1.67;;;23.60;68.30;;;;;;5032460;28;20296;-71
2022/08/25 03:43:17;;;;;;;1.92;1.83;;;23.60;68.30;;;;;;5030567;28;20199;-71
2022/08/25 03:45:45;;;;;;;2.17;1.92;;;23.60;68.30;;;;;;5031047;28;20176;-70
2022/08/25 03:48:13;;;;;;;2.10;1.95;;;23.60;68.30;;;;;;5031029;28;20213;-71
2022/08/25 03:50:45;;;;;;;1.88;1.77;;;23.60;68.30;;;;;;5031238;28;20195;-71
2022/08/25 03:53:11;;;;;;;1.80;1.70;;;23.60;68.20;;;;;;5030839;28;20186;-70
2022/08/25 03:55:37;;;;;;;1.90;1.80;;;23.60;68.20;;;;;;5014539;28;20191;-70
2022/08/25 03:58:03;;;;;;;1.90;1.80;;;23.60;68.20;;;;;;5047496;28;20657;-71
2022/08/25 04:00:30;;;;;;;2.40;2.20;;;23.60;68.30;;;;;;5032054;28;20279;-70
2022/08/25 04:02:55;;;;;;;2.15;1.92;;;23.60;68.30;;;;;;5031699;28;20647;-70
2022/08/25 04:05:22;;;;;;;2.42;2.33;;;23.60;68.30;;;;;;5032093;28;20258;-70
2022/08/25 04:07:47;;;;;;;2.03;1.90;;;23.60;68.30;;;;;;5031180;28;20183;-70
2022/08/25 04:10:14;;;;;;;2.28;2.08;;;23.60;68.30;;;;;;5030820;28;20190;-70
2022/08/25 04:12:40;;;;;;;2.30;2.20;;;23.60;68.30;;;;;;5014458;28;20179;-70
2022/08/25 04:15:08;;;;;;;2.08;1.98;;;23.60;68.30;;;;;;5013918;28;20175;-71
2022/08/25 04:17:38;;;;;;;2.25;2.15;;;23.60;68.30;;;;;;5034910;28;20221;-71
2022/08/25 04:20:07;;;;;;;2.22;2.03;;;23.60;68.30;;;;;;5034832;28;20702;-70
2022/08/25 04:22:35;;;;;;;2.03;1.92;;;23.60;68.40;;;;;;5018649;28;20218;-71
2022/08/25 04:25:01;;;;;;;2.15;1.95;;;23.60;68.30;;;;;;5035571;28;20187;-70
2022/08/25 04:27:27;;;;;;;1.90;1.80;;;23.60;68.30;;;;;;5036041;28;20250;-70
2022/08/25 04:29:53;;;;;;;1.85;1.75;;;23.60;68.30;;;;;;5035766;28;20255;-71
2022/08/25 04:32:19;;;;;;;2.03;1.92;;;23.60;68.30;;;;;;5035950;28;20200;-71
2022/08/25 04:34:45;;;;;;;2.38;2.20;;;23.60;68.30;;;;;;5035429;28;20179;-70
2022/08/25 04:37:11;;;;;;;2.28;2.13;;;23.60;68.30;;;;;;5034517;28;20709;-70
2022/08/25 04:39:36;;;;;;;1.80;1.70;;;23.60;68.30;;;;;;5034712;28;20207;-70
2022/08/25 04:42:03;;;;;;;1.90;1.80;;;23.60;68.30;;;;;;5034471;28;20207;-71
2022/08/25 04:44:30;;;;;;;1.88;1.77;;;23.60;68.30;;;;;;5033616;28;20187;-71
2022/08/25 04:46:57;;;;;;;2.30;2.20;;;23.60;68.40;;;;;;5035561;28;20211;-71
2022/08/25 04:49:22;;;;;;;1.85;1.75;;;23.60;68.40;;;;;;5034231;28;20203;-70
2022/08/25 04:51:48;;;;;;;1.90;1.80;;;23.60;68.40;;;;;;5034476;28;20621;-70
2022/08/25 04:54:16;;;;;;;2.15;2.05;;;23.60;68.40;;;;;;5050632;28;20214;-70
2022/08/25 04:56:43;;;;;;;2.47;2.28;;;23.60;68.40;;;;;;5034617;28;20180;-71
2022/08/25 04:59:12;;;;;;;2.50;2.30;;;23.60;68.40;;;;;;5034226;28;20203;-71
2022/08/25 05:01:40;;;;;;;2.30;2.10;;;23.60;68.40;;;;;;5035269;28;20199;-70
2022/08/25 05:04:10;;;;;;;3.10;2.90;;;23.60;68.40;;;;;;5030265;28;20188;-70
2022/08/25 05:06:36;;;;;;;2.80;2.60;;;23.60;68.40;;;;;;5015473;28;20208;-71
2022/08/25 05:09:04;;;;;;;2.60;2.40;;;23.60;68.50;;;;;;5015493;28;20290;-71
2022/08/25 05:11:30;;;;;;;2.58;2.38;;;23.60;69.30;;;;;;5014180;28;20180;-70
2022/08/25 05:13:58;;;;;;;2.92;2.65;;;23.60;68.40;;;;;;5016284;28;20199;-70
2022/08/25 05:16:25;;;;;;;2.70;2.50;;;23.60;68.50;;;;;;5017149;28;20218;-71
2022/08/25 05:18:53;;;;;;;2.03;1.92;;;23.60;68.40;;;;;;5035220;28;20214;-70
2022/08/25 05:21:24;;;;;;;2.20;2.10;;;23.60;68.40;;;;;;5035167;28;20235;-70
2022/08/25 05:23:57;;;;;;;2.50;2.30;;;23.60;68.50;;;;;;5033284;28;20178;-71
2022/08/25 05:26:25;;;;;;;2.38;2.20;;;23.60;68.40;;;;;;5033601;28;20560;-71
2022/08/25 05:28:53;;;;;;;2.10;2.00;;;23.60;68.50;;;;;;5033497;28;20286;-72
2022/08/25 05:31:23;;;;;;;2.38;1.67;;;23.60;68.50;;;;;;5034834;28;20195;-71
2022/08/25 05:33:50;;;;;;;2.80;2.60;;;23.60;68.50;;;;;;5049566;28;20593;-70
2022/08/25 05:36:18;;;;;;;2.45;2.25;;;23.60;68.70;;;;;;5033794;28;20182;-72
2022/08/25 05:38:44;;;;;;;2.75;2.55;;;23.60;69.00;;;;;;5033521;28;20203;-71
2022/08/25 05:41:15;;;;;;;2.75;2.55;;;23.60;69.10;;;;;;5035175;28;20226;-70
2022/08/25 05:43:43;;;;;;;2.55;2.35;;;23.50;69.00;;;;;;5033468;28;20266;-70
2022/08/25 05:46:09;;;;;;;3.03;2.83;;;23.50;69.80;;;;;;5033711;28;20183;-70
2022/08/25 05:48:36;;;;;;;3.22;2.92;;;23.50;69.20;;;;;;5017276;28;20306;-70
2022/08/25 05:51:05;;;;;;;4.05;3.65;;;23.40;69.40;;;;;;5016954;28;20187;-70
2022/08/25 05:53:32;;;;;;;4.65;3.88;;;23.40;70.70;;;;;;5034112;28;20674;-70
2022/08/25 05:55:59;;;;;;;5.43;4.28;;;23.40;70.10;;;;;;5036682;28;20187;-72
2022/08/25 05:58:28;;;;;;;5.85;4.43;;;23.40;70.60;;;;;;5024841;28;20237;-71
2022/08/25 06:00:55;;;;;;;7.00;5.25;;;23.40;70.60;;;;;;5042511;28;20223;-70
2022/08/25 06:03:21;;;;;;;5.00;4.60;;;23.40;70.70;;;;;;5032534;28;20187;-69
2022/08/25 06:05:48;;;;;;;5.60;5.10;;;23.40;70.60;;;;;;5034293;28;20206;-69
2022/08/25 06:08:14;;;;;;;5.38;4.88;;;23.40;70.90;;;;;;5032874;28;20199;-70
2022/08/25 06:10:41;;;;;;;5.80;5.10;;;23.40;71.10;;;;;;5034159;28;20198;-70
2022/08/25 06:13:07;;;;;;;5.50;5.00;;;23.40;71.20;;;;;;5033284;28;20195;-69
2022/08/25 06:15:34;;;;;;;5.30;4.80;;;23.40;71.50;;;;;;5016014;28;20194;-69
2022/08/25 06:18:01;;;;;;;5.68;5.18;;;23.40;71.70;;;;;;5032222;28;20187;-69
2022/08/25 06:20:29;;;;;;;6.03;5.47;;;23.40;71.50;;;;;;5031951;28;20199;-69
2022/08/25 06:22:57;;;;;;;6.45;5.13;;;23.40;71.70;;;;;;5032131;28;20183;-69
2022/08/25 06:25:25;;;;;;;5.25;4.75;;;23.40;71.70;;;;;;5048398;28;20274;-70
2022/08/25 06:27:53;;;;;;;5.15;4.65;;;23.40;72.00;;;;;;5032259;28;20210;-70
2022/08/25 06:30:23;;;;;;;6.13;5.53;;;23.40;71.90;;;;;;5032364;28;20176;-70
2022/08/25 06:32:48;;;;;;;5.35;4.85;;;23.40;72.00;;;;;;5015895;28;20183;-69
2022/08/25 06:35:17;;;;;;;5.68;5.18;;;23.40;71.90;;;;;;5031776;28;20546;-69
2022/08/25 06:37:44;;;;;;;7.40;5.15;;;23.40;72.00;;;;;;5032251;28;20202;-70
2022/08/25 06:40:12;;;;;;;5.75;5.25;;;23.40;72.00;;;;;;5031505;28;20634;-69
2022/08/25 06:42:38;;;;;;;5.88;5.28;;;23.40;72.00;;;;;;5031906;28;20249;-70
2022/08/25 06:45:07;;;;;;;5.60;4.90;;;23.40;72.20;;;;;;5023883;28;20206;-70
2022/08/25 06:47:33;;;;;;;5.50;5.00;;;23.50;72.50;;;;;;5032527;28;20179;-69
2022/08/25 06:49:59;;;;;;;5.90;5.40;;;23.40;72.30;;;;;;5032023;28;20257;-69
2022/08/25 06:52:25;;;;;;;5.88;5.28;;;23.50;72.80;;;;;;5031875;28;20187;-70
2022/08/25 06:54:52;;;;;;;5.18;4.70;;;23.50;72.90;;;;;;5030761;28;20184;-69
2022/08/25 06:57:17;;;;;;;5.30;4.80;;;23.50;72.80;;;;;;5030021;28;20184;-69
2022/08/25 06:59:43;;;;;;;6.05;5.30;;;23.50;73.20;;;;;;5032707;28;20210;-69
2022/08/25 07:02:09;;;;;;;5.82;5.15;;;23.50;73.30;;;;;;5030790;28;20207;-69
2022/08/25 07:04:35;;;;;;;6.03;5.45;;;23.50;73.30;;;;;;5017605;28;20192;-69
2022/08/25 07:07:03;;;;;;;5.70;5.20;;;23.50;73.60;;;;;;5031913;28;20184;-70
2022/08/25 07:09:29;;;;;;;5.30;4.80;;;23.60;73.80;;;;;;5032065;28;20264;-69
2022/08/25 07:11:55;;;;;;;5.60;5.10;;;23.60;74.10;;;;;;5033055;28;20563;-71
2022/08/25 07:14:21;;;;;;;5.30;4.80;;;23.60;74.30;;;;;;5030821;28;20249;-69
2022/08/25 07:16:48;;;;;;;6.22;5.28;;;23.60;74.10;;;;;;5015165;28;20617;-69
2022/08/25 07:19:13;;;;;;;5.65;5.15;;;23.60;74.20;;;;;;5031601;28;20203;-70
2022/08/25 07:21:44;;;;;;;5.80;5.07;;;23.60;73.30;;;;;;5032709;28;20191;-70
2022/08/25 07:24:13;;;;;;;8.27;4.95;;;23.60;73.40;;;;;;5014458;28;20256;-69
2022/08/25 07:26:42;;;;;;;5.45;4.80;;;23.60;73.40;;;;;;5032547;28;20187;-69
2022/08/25 07:29:17;;;;;;;5.55;5.05;;;23.60;73.50;;;;;;5031083;28;20200;-69
2022/08/25 07:31:42;;;;;;;5.60;5.20;;;23.60;73.40;;;;;;5032609;28;20171;-70
2022/08/25 07:36:54;;;;;;;4.97;4.55;;;23.60;73.70;;;;;;5031116;28;20198;-70
2022/08/25 07:39:21;;;;;;;5.82;4.93;;;23.60;73.70;;;;;;5029444;28;20210;-69
2022/08/25 07:41:47;;;;;;;6.20;4.90;;;23.60;73.50;;;;;;5031087;28;20218;-69
2022/08/25 07:44:13;;;;;;;5.15;4.65;;;23.60;73.40;;;;;;5031601;28;20194;-70
2022/08/25 07:46:39;;;;;;;6.00;4.47;;;23.60;73.30;;;;;;5031205;28;20187;-70
2022/08/25 07:49:06;;;;;;;5.68;5.00;;;23.60;73.70;;;;;;5031213;28;20207;-70
2022/08/25 07:51:33;;;;;;;4.85;4.40;;;23.60;73.40;;;;;;5030477;28;20184;-70
2022/08/25 07:53:59;;;;;;;4.70;4.30;;;23.70;73.30;;;;;;5030600;28;20190;-70
2022/08/25 07:56:24;;;;;;;4.93;4.53;;;23.70;73.10;;;;;;5031055;28;20226;-70
2022/08/25 07:58:51;;;;;;;5.13;4.63;;;23.70;73.00;;;;;;5031246;28;20272;-70
2022/08/25 08:01:21;;;;;;;4.35;3.95;;;23.80;73.00;;;;;;5013816;28;20215;-69
2022/08/25 08:03:48;;;;;;;5.32;4.82;;;23.70;72.70;;;;;;5011859;28;20168;-70
2022/08/25 08:06:18;;;;;;;4.68;4.28;;;23.80;72.70;;;;;;5012678;28;20263;-70
2022/08/25 08:08:48;;;;;;;5.10;4.70;;;23.80;72.80;;;;;;5011160;28;20228;-70
2022/08/25 08:11:33;;;;;;;4.20;3.85;;;23.80;72.90;;;;;;5011062;28;20180;-70
2022/08/25 08:14:00;;;;;;;5.28;4.68;;;23.80;72.80;;;;;;5022427;28;20190;-70
2022/08/25 08:16:29;;;;;;;5.38;4.82;;;23.80;72.90;;;;;;5030757;28;20172;-70
2022/08/25 08:18:57;;;;;;;4.35;3.97;;;23.80;72.80;;;;;;5030813;28;20219;-70
2022/08/25 08:21:31;;;;;;;5.22;4.72;;;23.80;72.90;;;;;;5030689;28;20214;-70
2022/08/25 08:23:58;;;;;;;4.88;4.47;;;23.80;73.00;;;;;;5030308;28;20645;-70
2022/08/25 08:26:24;;;;;;;4.80;4.50;;;23.80;72.80;;;;;;5031962;28;20183;-70
2022/08/25 08:28:51;;;;;;;5.05;4.13;;;23.80;72.80;;;;;;5030670;28;20246;-70
2022/08/25 08:31:25;;;;;;;5.00;4.53;;;23.80;72.70;;;;;;5030672;28;20187;-70
2022/08/25 08:33:53;;;;;;;4.90;4.40;;;23.80;72.50;;;;;;5031448;28;20175;-69
2022/08/25 08:36:21;;;;;;;4.68;4.30;;;23.80;72.60;;;;;;5030600;28;20195;-70
2022/08/25 08:38:47;;;;;;;4.57;4.28;;;23.80;72.60;;;;;;5013769;28;20264;-69
2022/08/25 08:42:15;;;;;;;4.47;4.07;;;23.80;72.60;;;;;;5021927;28;20234;-69
2022/08/25 08:44:44;;;;;;;4.65;4.30;;;23.80;72.30;;;;;;5026574;28;20201;-69
2022/08/25 08:47:18;;;;;;;4.18;3.88;;;23.90;72.60;;;;;;5031848;28;20183;-69
2022/08/25 08:50:21;;;;;;;4.80;4.40;;;23.90;72.50;;;;;;5014175;28;20275;-70
2022/08/25 08:53:28;;;;;;;4.80;4.40;;;23.90;72.40;;;;;;5030890;28;20260;-70
2022/08/25 08:55:59;;;;;;;7.35;4.40;;;23.90;72.30;;;;;;5031618;28;20183;-70
2022/08/25 08:59:03;;;;;;;5.65;4.50;;;23.90;72.40;;;;;;5030860;28;20207;-70
2022/08/25 09:01:48;;;;;;;4.50;4.10;;;23.90;72.40;;;;;;5012356;28;20261;-70
2022/08/25 09:04:49;;;;;;;4.43;4.03;;;23.90;72.30;;;;;;5029241;28;20198;-70
2022/08/25 09:07:22;;;;;;;4.53;4.13;;;23.90;72.20;;;;;;5026723;28;20695;-70
2022/08/25 09:09:49;;;;;;;4.70;4.20;;;23.90;72.20;;;;;;5028388;28;20212;-70
2022/08/25 09:12:40;;;;;;;4.50;4.10;;;23.90;72.20;;;;;;5011981;28;20188;-70
2022/08/25 09:18:45;;;;;;;4.40;4.10;;;23.90;72.20;;;;;;5031429;28;20237;-70
2022/08/25 09:21:57;;;;;;;4.18;3.83;;;23.90;72.20;;;;;;5028585;28;20273;-69
2022/08/25 09:25:03;;;;;;;4.05;3.75;;;23.90;72.10;;;;;;5030478;28;20643;-70
2022/08/25 09:28:07;;;;;;;4.10;3.75;;;23.90;72.10;;;;;;5012242;28;20188;-70
2022/08/25 09:31:01;;;;;;;4.10;3.80;;;23.90;72.10;;;;;;5011756;28;20180;-70
2022/08/25 09:33:30;;;;;;;4.40;4.00;;;23.90;72.20;;;;;;5011350;28;20184;-69
2022/08/25 09:35:57;;;;;;;4.20;3.90;;;23.90;72.20;;;;;;4995372;28;20192;-70
2022/08/25 09:38:25;;;;;;;3.95;3.58;;;23.90;72.30;;;;;;5012606;28;20192;-70
2022/08/25 09:40:56;;;;;;;4.30;4.00;;;23.90;72.40;;;;;;5011540;28;20701;-70
2022/08/25 09:43:30;;;;;;;3.80;3.50;;;23.90;72.50;;;;;;5011687;28;20267;-70
2022/08/25 09:46:12;;;;;;;3.95;3.65;;;23.90;72.30;;;;;;5012791;28;20175;-70
2022/08/25 09:48:53;;;;;;;4.00;3.70;;;23.90;72.50;;;;;;5011583;28;20203;-70
2022/08/25 09:51:31;;;;;;;3.75;3.47;;;23.90;72.30;;;;;;5011113;28;20188;-70
2022/08/25 09:54:15;;;;;;;4.47;4.07;;;23.90;72.20;;;;;;5021218;28;20249;-70
2022/08/25 09:57:00;;;;;;;3.75;3.45;;;23.90;72.20;;;;;;5031252;28;20183;-70
2022/08/25 09:59:35;;;;;;;3.95;3.65;;;23.90;72.20;;;;;;5044883;28;20206;-70
2022/08/25 10:02:23;;;;;;;4.00;3.70;;;23.90;72.20;;;;;;5031520;28;20202;-70
2022/08/25 10:04:51;;;;;;;4.03;3.35;;;23.90;72.10;;;;;;5030443;28;20179;-70
2022/08/25 10:07:46;;;;;;;3.83;3.53;;;23.90;72.20;;;;;;5030223;28;20176;-70
2022/08/25 10:10:28;;;;;;;3.90;3.60;;;23.90;72.10;;;;;;5031869;28;20164;-70
2022/08/25 10:12:57;;;;;;;3.58;3.20;;;23.90;72.00;;;;;;5030546;28;20277;-70
2022/08/25 10:15:36;;;;;;;3.65;3.35;;;23.90;72.00;;;;;;5031249;28;20644;-70
2022/08/25 10:18:23;;;;;;;3.42;3.13;;;23.90;72.00;;;;;;5032939;28;20230;-70
2022/08/25 10:21:08;;;;;;;3.42;3.13;;;23.90;72.10;;;;;;5032970;28;20211;-69
2022/08/25 10:23:39;;;;;;;3.72;3.42;;;23.90;72.90;;;;;;5032061;28;20203;-69
2022/08/25 10:26:27;;;;;;;3.63;3.33;;;23.90;72.10;;;;;;5032547;28;20218;-70
2022/08/25 10:29:16;;;;;;;3.80;3.50;;;23.90;72.00;;;;;;5015917;28;20203;-71
2022/08/25 10:32:39;;;;;;;3.47;3.20;;;23.90;72.00;;;;;;5032528;28;20180;-71
2022/08/25 10:35:16;;;;;;;3.25;2.97;;;23.90;72.10;;;;;;4974665;28;20197;-70
2022/08/25 10:38:06;;;;;;;3.22;3.03;;;23.90;72.10;;;;;;5008409;28;20188;-70
2022/08/25 10:40:55;;;;;;;3.35;3.10;;;23.90;72.00;;;;;;5009258;28;20290;-71
2022/08/25 10:43:52;;;;;;;3.42;3.17;;;23.90;71.90;;;;;;5013819;28;20176;-70
2022/08/25 10:46:41;;;;;;;3.65;3.35;;;23.90;71.90;;;;;;5012526;28;20216;-70
2022/08/25 10:49:19;;;;;;;4.22;3.05;;;23.90;72.20;;;;;;4996429;28;20251;-70
2022/08/25 10:52:15;;;;;;;3.50;3.20;;;23.90;72.20;;;;;;5012514;28;20181;-70
2022/08/25 10:54:59;;;;;;;3.40;3.20;;;23.90;72.10;;;;;;5011938;28;20191;-70
2022/08/25 10:57:34;;;;;;;3.45;3.15;;;23.90;72.00;;;;;;5033326;28;20198;-70
2022/08/25 11:00:21;;;;;;;3.03;2.83;;;23.90;72.00;;;;;;5033348;28;20202;-70
2022/08/25 11:03:23;;;;;;;3.38;3.17;;;23.90;72.00;;;;;;5032197;28;20207;-70
2022/08/25 11:06:04;;;;;;;3.60;3.30;;;23.90;72.10;;;;;;5048155;28;20183;-70
2022/08/25 11:08:41;;;;;;;3.03;2.83;;;23.90;72.10;;;;;;5032824;28;20206;-70
2022/08/25 11:11:31;;;;;;;2.90;2.70;;;23.90;71.90;;;;;;5031802;28;20171;-70
2022/08/25 11:14:04;;;;;;;3.53;3.05;;;24.00;72.00;;;;;;5032434;28;20194;-70
2022/08/25 11:16:42;;;;;;;2.95;2.75;;;23.90;71.90;;;;;;5031736;28;20190;-70
2022/08/25 11:19:23;;;;;;;3.35;3.15;;;23.90;71.90;;;;;;5031631;28;20202;-70
2022/08/25 11:22:13;;;;;;;3.63;3.00;;;23.90;72.00;;;;;;5031650;28;20211;-70
2022/08/25 11:25:17;;;;;;;3.13;2.83;;;23.90;71.90;;;;;;5030755;28;20214;-70
2022/08/25 11:28:04;;;;;;;3.25;3.00;;;24.00;71.90;;;;;;5031168;28;20682;-70
2022/08/25 11:30:30;;;;;;;3.75;3.45;;;24.00;71.80;;;;;;5031590;28;20183;-70
2022/08/25 11:32:57;;;;;;;2.88;2.67;;;24.00;71.80;;;;;;5031393;28;20199;-70
2022/08/25 11:35:42;;;;;;;3.30;3.10;;;24.00;71.70;;;;;;5030952;28;20184;-70
2022/08/25 11:39:17;;;;;;;3.22;3.03;;;24.00;71.70;;;;;;5030959;28;21317;-70
2022/08/25 11:41:54;;;;;;;3.10;2.90;;;24.00;71.80;;;;;;4987015;28;20218;-70
2022/08/25 11:44:50;;;;;;;3.42;3.13;;;24.00;71.70;;;;;;5009813;28;20282;-70
2022/08/25 11:47:45;;;;;;;3.20;3.00;;;24.00;71.80;;;;;;5014128;28;20179;-70
2022/08/25 11:50:55;;;;;;;3.17;2.97;;;24.00;71.80;;;;;;5011672;28;20229;-70
2022/08/25 11:53:39;;;;;;;3.17;2.97;;;24.00;71.70;;;;;;5024942;28;20249;-70
2022/08/25 11:56:31;;;;;;;3.17;2.88;;;24.00;71.60;;;;;;5006960;28;20183;-70
2022/08/25 11:58:57;;;;;;;2.97;2.78;;;24.00;71.70;;;;;;5026212;28;20215;-71
2022/08/25 12:01:38;;;;;;;3.20;2.90;;;24.00;71.70;;;;;;5032203;28;20215;-71
2022/08/25 12:04:40;;;;;;;4.30;3.65;;;24.00;71.90;;;;;;5014478;28;20179;-71
2022/08/25 12:07:05;;;;;;;3.30;3.00;;;24.00;71.80;;;;;;5031025;28;20202;-71
2022/08/25 12:09:54;;;;;;;3.08;2.88;;;24.00;71.60;;;;;;5030922;28;20234;-71
2022/08/25 12:12:40;;;;;;;3.40;3.10;;;24.00;71.60;;;;;;5025498;28;20199;-71
2022/08/25 12:15:22;;;;;;;3.15;2.95;;;24.00;71.60;;;;;;5031581;28;20203;-70
2022/08/25 12:18:12;;;;;;;3.10;2.90;;;24.00;71.60;;;;;;5032071;28;20191;-70
2022/08/25 12:20:55;;;;;;;3.00;2.80;;;24.00;71.40;;;;;;5030771;28;20282;-70
2022/08/25 12:24:01;;;;;;;3.10;2.90;;;24.00;71.30;;;;;;5014093;28;20191;-71
2022/08/25 12:26:47;;;;;;;2.95;2.75;;;24.00;71.30;;;;;;5009374;28;20190;-70
2022/08/25 12:29:37;;;;;;;3.25;3.05;;;24.00;71.30;;;;;;5030406;28;20203;-71
2022/08/25 12:32:56;;;;;;;3.03;2.72;;;24.00;71.30;;;;;;5014612;28;20627;-71
2022/08/25 12:35:31;;;;;;;3.00;2.80;;;24.00;71.30;;;;;;5030284;28;20176;-70
2022/08/25 12:38:16;;;;;;;2.70;2.53;;;24.00;71.30;;;;;;5032093;28;20179;-70
2022/08/25 12:40:41;;;;;;;3.10;2.90;;;24.00;71.30;;;;;;5034501;28;20206;-70
2022/08/25 12:43:27;;;;;;;3.25;3.05;;;24.10;71.40;;;;;;5035745;28;20207;-71
2022/08/25 12:46:21;;;;;;;3.42;3.15;;;24.00;71.30;;;;;;5034152;28;20245;-70
2022/08/25 12:48:57;;;;;;;3.25;2.95;;;24.10;71.40;;;;;;5026653;28;20251;-70
2022/08/25 12:51:52;;;;;;;3.20;3.00;;;24.10;71.40;;;;;;5034482;28;20187;-70
2022/08/25 12:54:40;;;;;;;3.17;2.95;;;24.00;71.30;;;;;;5033475;28;20689;-70
2022/08/25 12:57:28;;;;;;;2.88;2.67;;;24.10;71.40;;;;;;5014421;28;20288;-70
2022/08/25 13:00:00;;;;;;;3.08;2.80;;;24.00;71.20;;;;;;5015724;28;20199;-70
2022/08/25 13:03:13;;;;;;;3.08;2.85;;;24.10;71.40;;;;;;5015548;28;20215;-70
2022/08/25 13:05:45;;;;;;;3.28;3.00;;;24.10;71.40;;;;;;4976982;28;20648;-70
2022/08/25 13:08:39;;;;;;;3.20;3.00;;;24.10;71.20;;;;;;5010855;28;20218;-70
2022/08/25 13:11:22;;;;;;;3.03;2.78;;;24.10;71.20;;;;;;5014290;28;20194;-70
2022/08/25 13:14:03;;;;;;;3.25;3.05;;;24.10;71.10;;;;;;5013694;28;20230;-70
2022/08/25 13:16:29;;;;;;;3.03;2.83;;;24.10;71.20;;;;;;5015362;28;20180;-70
2022/08/25 13:18:58;;;;;;;3.45;3.15;;;24.10;71.10;;;;;;5014341;28;20220;-70
2022/08/25 13:21:38;;;;;;;3.55;3.25;;;24.10;72.00;;;;;;5014270;28;20246;-70
2022/08/25 13:24:32;;;;;;;3.03;2.83;;;24.10;71.20;;;;;;5025635;28;20182;-70
2022/08/25 13:27:07;;;;;;;3.13;2.83;;;24.10;71.20;;;;;;5033578;28;20187;-70
2022/08/25 13:29:49;;;;;;;3.45;3.17;;;24.10;71.20;;;;;;5033307;28;20203;-70
2022/08/25 13:32:27;;;;;;;2.80;2.60;;;24.10;71.20;;;;;;5017309;28;20179;-71